Airport Name : Samandira

Other Name : Istanbul Samand

ICAO : LTBX

IATA :

FAA :

Latitude : 40.992975

Longitude : 29.216539

Country : Turkey

Local Date and Time : 5/19/2019 10:16:00 AM

 

TAF (Terminal Aerodrome Forecast)

TAF LTBX 190440Z 1906/1915 22008KT CAVOK

 

METAR (METeorological Aerodrome Report)